sensor_id;sensor_type;location;lat;lon;timestamp;temperature;humidity
6206;DHT22;3136;48.788;9.772;2022-12-04T00:01:07;2.20;1.00
6206;DHT22;3136;48.788;9.772;2022-12-04T00:03:33;2.20;1.00
6206;DHT22;3136;48.788;9.772;2022-12-04T00:06:14;2.20;1.00
6206;DHT22;3136;48.788;9.772;2022-12-04T00:08:40;2.20;1.00
6206;DHT22;3136;48.788;9.772;2022-12-04T00:11:07;2.20;1.00
6206;DHT22;3136;48.788;9.772;2022-12-04T00:13:33;2.20;1.00
6206;DHT22;3136;48.788;9.772;2022-12-04T00:15:59;2.20;1.00
6206;DHT22;3136;48.788;9.772;2022-12-04T00:18:26;2.20;1.00
6206;DHT22;3136;48.788;9.772;2022-12-04T00:20:52;2.20;1.00
6206;DHT22;3136;48.788;9.772;2022-12-04T00:23:18;2.30;1.00
6206;DHT22;3136;48.788;9.772;2022-12-04T00:25:43;2.40;1.00
6206;DHT22;3136;48.788;9.772;2022-12-04T00:28:16;2.30;1.00
6206;DHT22;3136;48.788;9.772;2022-12-04T00:30:43;2.30;1.00
6206;DHT22;3136;48.788;9.772;2022-12-04T00:33:09;2.30;1.00
6206;DHT22;3136;48.788;9.772;2022-12-04T00:35:34;2.30;1.00
6206;DHT22;3136;48.788;9.772;2022-12-04T00:38:00;2.30;1.00
6206;DHT22;3136;48.788;9.772;2022-12-04T00:40:25;2.30;1.00
6206;DHT22;3136;48.788;9.772;2022-12-04T00:42:51;2.30;1.00
6206;DHT22;3136;48.788;9.772;2022-12-04T00:45:17;2.30;1.00
6206;DHT22;3136;48.788;9.772;2022-12-04T00:47:42;2.30;1.00
6206;DHT22;3136;48.788;9.772;2022-12-04T00:50:09;2.30;1.00
6206;DHT22;3136;48.788;9.772;2022-12-04T00:52:34;2.30;1.00
6206;DHT22;3136;48.788;9.772;2022-12-04T00:55:00;2.30;1.00
6206;DHT22;3136;48.788;9.772;2022-12-04T00:57:25;2.30;1.00
6206;DHT22;3136;48.788;9.772;2022-12-04T00:59:51;2.30;1.00
6206;DHT22;3136;48.788;9.772;2022-12-04T01:02:16;2.30;1.00
6206;DHT22;3136;48.788;9.772;2022-12-04T01:04:42;2.30;1.00
6206;DHT22;3136;48.788;9.772;2022-12-04T01:07:07;2.30;1.00
6206;DHT22;3136;48.788;9.772;2022-12-04T01:09:33;2.20;1.00
6206;DHT22;3136;48.788;9.772;2022-12-04T01:11:59;2.30;1.00
6206;DHT22;3136;48.788;9.772;2022-12-04T01:14:24;2.20;1.00
6206;DHT22;3136;48.788;9.772;2022-12-04T01:16:50;2.30;1.00
6206;DHT22;3136;48.788;9.772;2022-12-04T01:19:15;2.30;1.00
6206;DHT22;3136;48.788;9.772;2022-12-04T01:21:41;2.30;1.00
6206;DHT22;3136;48.788;9.772;2022-12-04T01:24:07;2.20;1.00
6206;DHT22;3136;48.788;9.772;2022-12-04T01:26:33;2.20;1.00
6206;DHT22;3136;48.788;9.772;2022-12-04T01:28:59;2.30;1.00
6206;DHT22;3136;48.788;9.772;2022-12-04T01:31:25;2.20;1.00
6206;DHT22;3136;48.788;9.772;2022-12-04T01:33:51;2.30;1.00
6206;DHT22;3136;48.788;9.772;2022-12-04T01:36:19;2.30;1.00
6206;DHT22;3136;48.788;9.772;2022-12-04T01:38:45;2.30;1.00
6206;DHT22;3136;48.788;9.772;2022-12-04T01:41:13;2.20;1.00
6206;DHT22;3136;48.788;9.772;2022-12-04T01:43:39;2.30;1.00
6206;DHT22;3136;48.788;9.772;2022-12-04T01:46:06;2.30;1.00
6206;DHT22;3136;48.788;9.772;2022-12-04T01:48:34;2.20;1.00
6206;DHT22;3136;48.788;9.772;2022-12-04T01:51:27;2.20;1.00
6206;DHT22;3136;48.788;9.772;2022-12-04T01:54:00;2.30;1.00
6206;DHT22;3136;48.788;9.772;2022-12-04T01:56:32;2.30;1.00
6206;DHT22;3136;48.788;9.772;2022-12-04T01:59:00;2.30;1.00
6206;DHT22;3136;48.788;9.772;2022-12-04T02:01:28;2.30;1.00
6206;DHT22;3136;48.788;9.772;2022-12-04T02:03:56;2.30;1.00
6206;DHT22;3136;48.788;9.772;2022-12-04T02:06:23;2.30;1.00
6206;DHT22;3136;48.788;9.772;2022-12-04T02:08:48;2.30;1.00
6206;DHT22;3136;48.788;9.772;2022-12-04T02:16:24;2.30;1.00
6206;DHT22;3136;48.788;9.772;2022-12-04T02:21:43;2.30;1.00
6206;DHT22;3136;48.788;9.772;2022-12-04T02:30:01;2.30;1.00
6206;DHT22;3136;48.788;9.772;2022-12-04T02:32:38;2.30;1.00
6206;DHT22;3136;48.788;9.772;2022-12-04T02:37:51;2.30;1.00
6206;DHT22;3136;48.788;9.772;2022-12-04T02:40:23;2.30;1.00
6206;DHT22;3136;48.788;9.772;2022-12-04T02:42:59;2.30;1.00
6206;DHT22;3136;48.788;9.772;2022-12-04T02:45:46;2.30;1.00
6206;DHT22;3136;48.788;9.772;2022-12-04T02:48:18;2.30;1.00
6206;DHT22;3136;48.788;9.772;2022-12-04T02:50:47;2.30;1.00
6206;DHT22;3136;48.788;9.772;2022-12-04T02:53:26;2.30;1.00
6206;DHT22;3136;48.788;9.772;2022-12-04T02:55:57;2.30;1.00
6206;DHT22;3136;48.788;9.772;2022-12-04T02:58:46;2.30;1.00
6206;DHT22;3136;48.788;9.772;2022-12-04T03:01:15;2.30;1.00
6206;DHT22;3136;48.788;9.772;2022-12-04T03:04:15;2.30;1.00
6206;DHT22;3136;48.788;9.772;2022-12-04T03:06:44;2.20;1.00
6206;DHT22;3136;48.788;9.772;2022-12-04T03:09:17;2.30;1.00
6206;DHT22;3136;48.788;9.772;2022-12-04T03:11:58;2.30;1.00
6206;DHT22;3136;48.788;9.772;2022-12-04T03:14:31;2.30;1.00
6206;DHT22;3136;48.788;9.772;2022-12-04T03:17:03;2.30;1.00
6206;DHT22;3136;48.788;9.772;2022-12-04T03:19:38;2.40;1.00
6206;DHT22;3136;48.788;9.772;2022-12-04T03:22:09;2.30;1.00
6206;DHT22;3136;48.788;9.772;2022-12-04T03:24:40;2.30;1.00
6206;DHT22;3136;48.788;9.772;2022-12-04T03:29:57;2.30;1.00
6206;DHT22;3136;48.788;9.772;2022-12-04T03:33:07;2.30;1.00
6206;DHT22;3136;48.788;9.772;2022-12-04T03:35:31;2.30;1.00
6206;DHT22;3136;48.788;9.772;2022-12-04T03:44:17;2.30;1.00
6206;DHT22;3136;48.788;9.772;2022-12-04T03:47:07;2.30;1.00
6206;DHT22;3136;48.788;9.772;2022-12-04T03:49:50;2.30;1.00
6206;DHT22;3136;48.788;9.772;2022-12-04T03:55:10;2.30;1.00
6206;DHT22;3136;48.788;9.772;2022-12-04T03:57:41;2.30;1.00
6206;DHT22;3136;48.788;9.772;2022-12-04T04:00:18;2.30;1.00
6206;DHT22;3136;48.788;9.772;2022-12-04T04:02:52;2.30;1.00
6206;DHT22;3136;48.788;9.772;2022-12-04T04:05:20;2.30;1.00
6206;DHT22;3136;48.788;9.772;2022-12-04T04:07:50;2.30;1.00
6206;DHT22;3136;48.788;9.772;2022-12-04T04:10:19;4.20;1.00
6206;DHT22;3136;48.788;9.772;2022-12-04T04:12:50;2.30;1.00
6206;DHT22;3136;48.788;9.772;2022-12-04T04:15:38;2.30;1.00
6206;DHT22;3136;48.788;9.772;2022-12-04T04:18:26;2.30;1.00
6206;DHT22;3136;48.788;9.772;2022-12-04T04:21:12;2.30;1.00
6206;DHT22;3136;48.788;9.772;2022-12-04T04:23:58;2.30;1.00
6206;DHT22;3136;48.788;9.772;2022-12-04T04:26:43;2.30;1.00
6206;DHT22;3136;48.788;9.772;2022-12-04T04:29:10;2.30;1.00
6206;DHT22;3136;48.788;9.772;2022-12-04T04:34:19;2.30;1.00
6206;DHT22;3136;48.788;9.772;2022-12-04T04:42:23;2.30;1.00
6206;DHT22;3136;48.788;9.772;2022-12-04T04:45:04;2.30;1.00
6206;DHT22;3136;48.788;9.772;2022-12-04T04:47:45;2.30;1.00
6206;DHT22;3136;48.788;9.772;2022-12-04T04:50:13;2.30;1.00
6206;DHT22;3136;48.788;9.772;2022-12-04T04:52:43;2.30;1.00
6206;DHT22;3136;48.788;9.772;2022-12-04T04:55:09;2.30;1.00
6206;DHT22;3136;48.788;9.772;2022-12-04T04:57:36;2.40;1.00
6206;DHT22;3136;48.788;9.772;2022-12-04T05:00:07;4.30;1.00
6206;DHT22;3136;48.788;9.772;2022-12-04T05:02:34;2.40;1.00
6206;DHT22;3136;48.788;9.772;2022-12-04T05:04:59;2.40;1.00
6206;DHT22;3136;48.788;9.772;2022-12-04T05:07:25;2.40;1.00
6206;DHT22;3136;48.788;9.772;2022-12-04T05:09:51;2.40;1.00
6206;DHT22;3136;48.788;9.772;2022-12-04T05:12:16;2.40;1.00
6206;DHT22;3136;48.788;9.772;2022-12-04T05:14:42;2.40;1.00
6206;DHT22;3136;48.788;9.772;2022-12-04T05:17:07;2.40;1.00
6206;DHT22;3136;48.788;9.772;2022-12-04T05:19:33;2.40;1.00
6206;DHT22;3136;48.788;9.772;2022-12-04T05:22:34;2.40;1.00
6206;DHT22;3136;48.788;9.772;2022-12-04T05:25:00;2.40;1.00
6206;DHT22;3136;48.788;9.772;2022-12-04T05:27:27;2.40;1.00
6206;DHT22;3136;48.788;9.772;2022-12-04T05:29:54;2.40;1.00
6206;DHT22;3136;48.788;9.772;2022-12-04T05:32:21;2.40;1.00
6206;DHT22;3136;48.788;9.772;2022-12-04T05:34:51;2.40;1.00
6206;DHT22;3136;48.788;9.772;2022-12-04T05:37:17;2.40;1.00
6206;DHT22;3136;48.788;9.772;2022-12-04T05:39:43;2.40;1.00
6206;DHT22;3136;48.788;9.772;2022-12-04T05:42:09;2.40;1.00
6206;DHT22;3136;48.788;9.772;2022-12-04T05:44:35;2.40;1.00
6206;DHT22;3136;48.788;9.772;2022-12-04T05:47:00;2.40;1.00
6206;DHT22;3136;48.788;9.772;2022-12-04T05:49:30;2.40;1.00
6206;DHT22;3136;48.788;9.772;2022-12-04T05:51:56;2.40;1.00
6206;DHT22;3136;48.788;9.772;2022-12-04T05:54:22;2.40;1.00
6206;DHT22;3136;48.788;9.772;2022-12-04T05:56:48;2.40;1.00
6206;DHT22;3136;48.788;9.772;2022-12-04T05:59:13;2.40;1.00
6206;DHT22;3136;48.788;9.772;2022-12-04T06:01:40;2.40;1.00
6206;DHT22;3136;48.788;9.772;2022-12-04T06:04:05;2.40;1.00
6206;DHT22;3136;48.788;9.772;2022-12-04T06:06:31;2.40;1.00
6206;DHT22;3136;48.788;9.772;2022-12-04T06:08:58;2.40;1.00
6206;DHT22;3136;48.788;9.772;2022-12-04T06:11:29;2.40;1.00
6206;DHT22;3136;48.788;9.772;2022-12-04T06:13:57;2.50;1.00
6206;DHT22;3136;48.788;9.772;2022-12-04T06:16:28;2.40;1.00
6206;DHT22;3136;48.788;9.772;2022-12-04T06:19:00;2.40;1.00
6206;DHT22;3136;48.788;9.772;2022-12-04T06:21:28;2.40;1.00
6206;DHT22;3136;48.788;9.772;2022-12-04T06:23:54;2.40;1.00
6206;DHT22;3136;48.788;9.772;2022-12-04T06:26:20;2.50;1.00
6206;DHT22;3136;48.788;9.772;2022-12-04T06:28:46;2.40;1.00
6206;DHT22;3136;48.788;9.772;2022-12-04T06:31:13;2.40;1.00
6206;DHT22;3136;48.788;9.772;2022-12-04T06:33:39;2.40;1.00
6206;DHT22;3136;48.788;9.772;2022-12-04T06:36:11;2.40;1.00
6206;DHT22;3136;48.788;9.772;2022-12-04T06:38:37;2.40;1.00
6206;DHT22;3136;48.788;9.772;2022-12-04T06:41:08;2.40;1.00
6206;DHT22;3136;48.788;9.772;2022-12-04T06:43:34;2.40;1.00
6206;DHT22;3136;48.788;9.772;2022-12-04T06:46:05;2.40;1.00
6206;DHT22;3136;48.788;9.772;2022-12-04T06:48:32;2.50;1.00
6206;DHT22;3136;48.788;9.772;2022-12-04T06:50:59;2.50;1.00
6206;DHT22;3136;48.788;9.772;2022-12-04T06:53:26;2.50;1.00
6206;DHT22;3136;48.788;9.772;2022-12-04T06:55:58;2.50;1.00
6206;DHT22;3136;48.788;9.772;2022-12-04T06:58:24;2.50;1.00
6206;DHT22;3136;48.788;9.772;2022-12-04T07:00:50;2.40;1.00
6206;DHT22;3136;48.788;9.772;2022-12-04T07:03:15;2.50;1.00
6206;DHT22;3136;48.788;9.772;2022-12-04T07:05:41;2.40;1.00
6206;DHT22;3136;48.788;9.772;2022-12-04T07:08:07;2.40;1.00
6206;DHT22;3136;48.788;9.772;2022-12-04T07:10:35;2.40;1.00
6206;DHT22;3136;48.788;9.772;2022-12-04T07:13:01;4.30;1.00
6206;DHT22;3136;48.788;9.772;2022-12-04T07:15:27;2.40;1.00
6206;DHT22;3136;48.788;9.772;2022-12-04T07:17:52;2.40;1.00
6206;DHT22;3136;48.788;9.772;2022-12-04T07:20:18;2.40;1.00
6206;DHT22;3136;48.788;9.772;2022-12-04T07:22:43;2.50;1.00
6206;DHT22;3136;48.788;9.772;2022-12-04T07:25:09;2.50;1.00
6206;DHT22;3136;48.788;9.772;2022-12-04T07:27:35;2.50;1.00
6206;DHT22;3136;48.788;9.772;2022-12-04T07:30:00;2.50;1.00
6206;DHT22;3136;48.788;9.772;2022-12-04T07:32:26;2.40;1.00
6206;DHT22;3136;48.788;9.772;2022-12-04T07:34:51;2.50;1.00
6206;DHT22;3136;48.788;9.772;2022-12-04T07:37:17;2.50;1.00
6206;DHT22;3136;48.788;9.772;2022-12-04T07:39:43;2.50;1.00
6206;DHT22;3136;48.788;9.772;2022-12-04T07:42:08;2.50;1.00
6206;DHT22;3136;48.788;9.772;2022-12-04T07:44:34;2.50;1.00
6206;DHT22;3136;48.788;9.772;2022-12-04T07:46:59;2.50;1.00
6206;DHT22;3136;48.788;9.772;2022-12-04T07:49:26;2.50;1.00
6206;DHT22;3136;48.788;9.772;2022-12-04T07:51:51;2.50;1.00
6206;DHT22;3136;48.788;9.772;2022-12-04T07:54:17;2.50;1.00
6206;DHT22;3136;48.788;9.772;2022-12-04T07:56:42;2.50;1.00
6206;DHT22;3136;48.788;9.772;2022-12-04T07:59:08;2.50;1.00
6206;DHT22;3136;48.788;9.772;2022-12-04T08:01:33;2.50;1.00
6206;DHT22;3136;48.788;9.772;2022-12-04T08:03:59;2.60;1.00
6206;DHT22;3136;48.788;9.772;2022-12-04T08:06:27;2.60;1.00
6206;DHT22;3136;48.788;9.772;2022-12-04T08:08:53;2.60;1.00
6206;DHT22;3136;48.788;9.772;2022-12-04T08:11:21;2.60;1.00
6206;DHT22;3136;48.788;9.772;2022-12-04T08:13:47;2.60;1.00
6206;DHT22;3136;48.788;9.772;2022-12-04T08:16:14;2.60;1.00
6206;DHT22;3136;48.788;9.772;2022-12-04T08:18:40;2.70;1.00
6206;DHT22;3136;48.788;9.772;2022-12-04T08:21:11;2.60;1.00
6206;DHT22;3136;48.788;9.772;2022-12-04T08:23:39;2.70;1.00
6206;DHT22;3136;48.788;9.772;2022-12-04T08:26:05;2.70;1.00
6206;DHT22;3136;48.788;9.772;2022-12-04T08:28:31;2.70;1.00
6206;DHT22;3136;48.788;9.772;2022-12-04T08:31:05;2.70;1.00
6206;DHT22;3136;48.788;9.772;2022-12-04T08:33:32;2.70;1.00
6206;DHT22;3136;48.788;9.772;2022-12-04T08:35:57;2.70;1.00
6206;DHT22;3136;48.788;9.772;2022-12-04T08:38:23;2.70;1.00
6206;DHT22;3136;48.788;9.772;2022-12-04T08:40:49;2.80;1.00
6206;DHT22;3136;48.788;9.772;2022-12-04T08:43:14;2.80;1.00
6206;DHT22;3136;48.788;9.772;2022-12-04T08:45:40;2.80;1.00
6206;DHT22;3136;48.788;9.772;2022-12-04T08:48:05;2.80;1.00
6206;DHT22;3136;48.788;9.772;2022-12-04T08:50:31;2.90;1.00
6206;DHT22;3136;48.788;9.772;2022-12-04T08:52:57;2.80;1.00
6206;DHT22;3136;48.788;9.772;2022-12-04T08:55:23;2.80;1.00
6206;DHT22;3136;48.788;9.772;2022-12-04T08:57:50;2.90;1.00
6206;DHT22;3136;48.788;9.772;2022-12-04T09:00:17;2.90;1.00
6206;DHT22;3136;48.788;9.772;2022-12-04T09:02:43;2.90;1.00
6206;DHT22;3136;48.788;9.772;2022-12-04T09:05:08;2.90;1.00
6206;DHT22;3136;48.788;9.772;2022-12-04T09:07:34;2.90;1.00
6206;DHT22;3136;48.788;9.772;2022-12-04T09:09:59;2.90;1.00
6206;DHT22;3136;48.788;9.772;2022-12-04T09:12:25;3.00;1.00
6206;DHT22;3136;48.788;9.772;2022-12-04T09:14:51;3.00;1.00
6206;DHT22;3136;48.788;9.772;2022-12-04T09:17:16;3.80;1.00
6206;DHT22;3136;48.788;9.772;2022-12-04T09:19:42;3.00;1.00
6206;DHT22;3136;48.788;9.772;2022-12-04T09:22:08;3.00;1.00
6206;DHT22;3136;48.788;9.772;2022-12-04T09:24:33;3.10;1.00
6206;DHT22;3136;48.788;9.772;2022-12-04T09:27:00;3.10;1.00
6206;DHT22;3136;48.788;9.772;2022-12-04T09:29:25;3.10;99.90
6206;DHT22;3136;48.788;9.772;2022-12-04T09:31:51;3.10;99.90
6206;DHT22;3136;48.788;9.772;2022-12-04T09:34:17;3.10;99.90
6206;DHT22;3136;48.788;9.772;2022-12-04T09:36:42;3.20;99.90
6206;DHT22;3136;48.788;9.772;2022-12-04T09:39:09;3.10;99.90
6206;DHT22;3136;48.788;9.772;2022-12-04T09:44:52;3.10;1.00
6206;DHT22;3136;48.788;9.772;2022-12-04T09:47:27;3.10;1.00
6206;DHT22;3136;48.788;9.772;2022-12-04T09:50:09;3.10;1.00
6206;DHT22;3136;48.788;9.772;2022-12-04T09:52:56;3.10;1.00
6206;DHT22;3136;48.788;9.772;2022-12-04T09:55:40;3.10;1.00
6206;DHT22;3136;48.788;9.772;2022-12-04T09:58:12;3.10;1.00
6206;DHT22;3136;48.788;9.772;2022-12-04T10:00:41;3.10;7.80
6206;DHT22;3136;48.788;9.772;2022-12-04T10:03:14;3.20;1.00
6206;DHT22;3136;48.788;9.772;2022-12-04T10:08:44;3.20;1.00
6206;DHT22;3136;48.788;9.772;2022-12-04T10:11:26;3.30;1.00
6206;DHT22;3136;48.788;9.772;2022-12-04T10:19:29;3.30;1.00
6206;DHT22;3136;48.788;9.772;2022-12-04T10:22:15;3.30;1.00
6206;DHT22;3136;48.788;9.772;2022-12-04T10:24:48;3.30;1.00
6206;DHT22;3136;48.788;9.772;2022-12-04T10:30:22;3.30;1.00
6206;DHT22;3136;48.788;9.772;2022-12-04T10:32:57;3.40;1.00
6206;DHT22;3136;48.788;9.772;2022-12-04T10:35:27;3.30;1.00
6206;DHT22;3136;48.788;9.772;2022-12-04T10:38:01;3.40;1.00
6206;DHT22;3136;48.788;9.772;2022-12-04T10:40:36;3.40;1.00
6206;DHT22;3136;48.788;9.772;2022-12-04T10:45:41;3.40;1.00
6206;DHT22;3136;48.788;9.772;2022-12-04T10:48:19;3.40;1.00
6206;DHT22;3136;48.788;9.772;2022-12-04T10:50:46;3.40;1.00
6206;DHT22;3136;48.788;9.772;2022-12-04T10:53:13;3.40;1.00
6206;DHT22;3136;48.788;9.772;2022-12-04T10:55:39;3.40;1.00
6206;DHT22;3136;48.788;9.772;2022-12-04T10:58:15;3.40;1.00
6206;DHT22;3136;48.788;9.772;2022-12-04T11:00:43;3.40;1.00
6206;DHT22;3136;48.788;9.772;2022-12-04T11:03:24;3.50;1.00
6206;DHT22;3136;48.788;9.772;2022-12-04T11:06:09;3.50;1.00
6206;DHT22;3136;48.788;9.772;2022-12-04T11:08:41;3.50;1.00
6206;DHT22;3136;48.788;9.772;2022-12-04T11:11:12;3.50;1.00
6206;DHT22;3136;48.788;9.772;2022-12-04T11:13:40;3.50;1.00
6206;DHT22;3136;48.788;9.772;2022-12-04T11:16:06;3.50;99.90
6206;DHT22;3136;48.788;9.772;2022-12-04T11:18:47;3.50;1.00
6206;DHT22;3136;48.788;9.772;2022-12-04T11:21:22;3.50;1.00
6206;DHT22;3136;48.788;9.772;2022-12-04T11:23:49;3.60;1.00
6206;DHT22;3136;48.788;9.772;2022-12-04T11:26:36;3.60;1.00
6206;DHT22;3136;48.788;9.772;2022-12-04T11:29:03;3.70;1.00
6206;DHT22;3136;48.788;9.772;2022-12-04T11:31:30;3.70;1.00
6206;DHT22;3136;48.788;9.772;2022-12-04T11:33:59;3.70;1.00
6206;DHT22;3136;48.788;9.772;2022-12-04T11:36:33;3.70;1.00
6206;DHT22;3136;48.788;9.772;2022-12-04T11:41:36;3.80;1.00
6206;DHT22;3136;48.788;9.772;2022-12-04T11:44:05;3.80;1.00
6206;DHT22;3136;48.788;9.772;2022-12-04T11:46:31;3.80;1.00
6206;DHT22;3136;48.788;9.772;2022-12-04T11:48:58;3.80;1.00
6206;DHT22;3136;48.788;9.772;2022-12-04T11:51:44;3.80;1.00
6206;DHT22;3136;48.788;9.772;2022-12-04T11:54:18;3.80;1.00
6206;DHT22;3136;48.788;9.772;2022-12-04T11:56:54;3.80;99.90
6206;DHT22;3136;48.788;9.772;2022-12-04T11:59:53;3.80;1.00
6206;DHT22;3136;48.788;9.772;2022-12-04T12:03:04;3.80;1.00
6206;DHT22;3136;48.788;9.772;2022-12-04T12:13:46;3.80;1.00
6206;DHT22;3136;48.788;9.772;2022-12-04T12:19:53;3.90;1.00
6206;DHT22;3136;48.788;9.772;2022-12-04T12:27:58;3.10;99.90
6206;DHT22;3136;48.788;9.772;2022-12-04T12:30:29;3.90;99.90
6206;DHT22;3136;48.788;9.772;2022-12-04T12:33:18;3.90;99.90
6206;DHT22;3136;48.788;9.772;2022-12-04T12:38:25;3.90;99.90
6206;DHT22;3136;48.788;9.772;2022-12-04T12:40:59;3.90;99.90
6206;DHT22;3136;48.788;9.772;2022-12-04T12:43:31;3.90;1.00
6206;DHT22;3136;48.788;9.772;2022-12-04T12:53:48;3.80;1.00
6206;DHT22;3136;48.788;9.772;2022-12-04T12:56:17;3.80;1.00
6206;DHT22;3136;48.788;9.772;2022-12-04T12:58:50;4.10;1.00
6206;DHT22;3136;48.788;9.772;2022-12-04T13:09:52;3.80;1.00
6206;DHT22;3136;48.788;9.772;2022-12-04T13:12:21;3.80;1.00
6206;DHT22;3136;48.788;9.772;2022-12-04T13:14:47;3.80;1.00
6206;DHT22;3136;48.788;9.772;2022-12-04T13:17:34;3.70;62.20
6206;DHT22;3136;48.788;9.772;2022-12-04T13:20:05;3.70;99.90
6206;DHT22;3136;48.788;9.772;2022-12-04T13:30:50;3.70;99.90
6206;DHT22;3136;48.788;9.772;2022-12-04T13:41:19;3.70;99.90
6206;DHT22;3136;48.788;9.772;2022-12-04T13:43:48;3.70;99.90
6206;DHT22;3136;48.788;9.772;2022-12-04T13:51:54;3.70;99.90
6206;DHT22;3136;48.788;9.772;2022-12-04T13:54:21;3.70;99.90
6206;DHT22;3136;48.788;9.772;2022-12-04T13:56:49;3.70;99.90
6206;DHT22;3136;48.788;9.772;2022-12-04T14:02:43;3.70;99.90
6206;DHT22;3136;48.788;9.772;2022-12-04T14:04:59;3.70;1.00
6206;DHT22;3136;48.788;9.772;2022-12-04T14:07:54;3.70;99.90
6206;DHT22;3136;48.788;9.772;2022-12-04T14:10:31;3.70;1.00
6206;DHT22;3136;48.788;9.772;2022-12-04T14:13:19;3.70;1.00
6206;DHT22;3136;48.788;9.772;2022-12-04T14:15:46;3.70;1.00
6206;DHT22;3136;48.788;9.772;2022-12-04T14:20:39;3.70;1.00
6206;DHT22;3136;48.788;9.772;2022-12-04T14:23:32;3.70;1.00
6206;DHT22;3136;48.788;9.772;2022-12-04T14:25:58;3.70;1.00
6206;DHT22;3136;48.788;9.772;2022-12-04T14:33:38;3.70;1.00
6206;DHT22;3136;48.788;9.772;2022-12-04T14:39:42;3.70;1.00
6206;DHT22;3136;48.788;9.772;2022-12-04T14:41:48;3.70;1.00
6206;DHT22;3136;48.788;9.772;2022-12-04T14:44:29;3.70;1.00
6206;DHT22;3136;48.788;9.772;2022-12-04T14:47:06;3.70;1.00
6206;DHT22;3136;48.788;9.772;2022-12-04T14:50:03;3.60;1.00
6206;DHT22;3136;48.788;9.772;2022-12-04T14:55:38;3.60;1.00
6206;DHT22;3136;48.788;9.772;2022-12-04T14:58:17;3.60;1.00
6206;DHT22;3136;48.788;9.772;2022-12-04T15:01:04;3.50;1.00
6206;DHT22;3136;48.788;9.772;2022-12-04T15:03:34;3.50;46.50
6206;DHT22;3136;48.788;9.772;2022-12-04T15:06:03;3.50;84.70
6206;DHT22;3136;48.788;9.772;2022-12-04T15:08:29;3.50;99.90
6206;DHT22;3136;48.788;9.772;2022-12-04T15:10:55;3.50;99.90
6206;DHT22;3136;48.788;9.772;2022-12-04T15:14:06;3.40;99.90
6206;DHT22;3136;48.788;9.772;2022-12-04T15:16:35;3.50;99.90
6206;DHT22;3136;48.788;9.772;2022-12-04T15:19:00;3.50;99.90
6206;DHT22;3136;48.788;9.772;2022-12-04T15:21:44;3.50;99.90
6206;DHT22;3136;48.788;9.772;2022-12-04T15:24:19;3.40;99.90
6206;DHT22;3136;48.788;9.772;2022-12-04T15:26:47;3.40;99.90
6206;DHT22;3136;48.788;9.772;2022-12-04T15:29:20;3.50;99.90
6206;DHT22;3136;48.788;9.772;2022-12-04T15:31:49;3.40;99.90
6206;DHT22;3136;48.788;9.772;2022-12-04T15:34:23;3.50;99.90
6206;DHT22;3136;48.788;9.772;2022-12-04T15:37:00;3.50;99.90
6206;DHT22;3136;48.788;9.772;2022-12-04T15:39:32;3.50;99.90
6206;DHT22;3136;48.788;9.772;2022-12-04T15:44:39;3.40;99.90
6206;DHT22;3136;48.788;9.772;2022-12-04T15:47:22;3.50;99.90
6206;DHT22;3136;48.788;9.772;2022-12-04T15:49:48;3.40;99.90
6206;DHT22;3136;48.788;9.772;2022-12-04T15:52:20;3.40;99.90
6206;DHT22;3136;48.788;9.772;2022-12-04T15:59:52;3.40;99.90
6206;DHT22;3136;48.788;9.772;2022-12-04T16:02:38;3.40;99.90
6206;DHT22;3136;48.788;9.772;2022-12-04T16:07:54;3.40;99.90
6206;DHT22;3136;48.788;9.772;2022-12-04T16:10:31;3.40;99.90
6206;DHT22;3136;48.788;9.772;2022-12-04T16:13:01;3.30;99.90
6206;DHT22;3136;48.788;9.772;2022-12-04T16:15:37;3.30;99.90
6206;DHT22;3136;48.788;9.772;2022-12-04T16:18:04;3.30;99.90
6206;DHT22;3136;48.788;9.772;2022-12-04T16:20:33;3.30;99.90
6206;DHT22;3136;48.788;9.772;2022-12-04T16:22:59;3.30;99.90
6206;DHT22;3136;48.788;9.772;2022-12-04T16:25:25;3.30;99.90
6206;DHT22;3136;48.788;9.772;2022-12-04T16:27:50;3.30;99.90
6206;DHT22;3136;48.788;9.772;2022-12-04T16:30:16;3.30;99.90
6206;DHT22;3136;48.788;9.772;2022-12-04T16:32:41;3.30;99.90
6206;DHT22;3136;48.788;9.772;2022-12-04T16:35:14;3.20;99.90
6206;DHT22;3136;48.788;9.772;2022-12-04T16:37:40;3.20;99.90
6206;DHT22;3136;48.788;9.772;2022-12-04T16:40:06;3.20;99.90
6206;DHT22;3136;48.788;9.772;2022-12-04T16:42:33;3.20;99.90
6206;DHT22;3136;48.788;9.772;2022-12-04T16:44:59;3.20;99.90
6206;DHT22;3136;48.788;9.772;2022-12-04T16:47:25;3.10;99.90
6206;DHT22;3136;48.788;9.772;2022-12-04T16:49:51;3.20;99.90
6206;DHT22;3136;48.788;9.772;2022-12-04T16:52:18;3.10;99.90
6206;DHT22;3136;48.788;9.772;2022-12-04T16:54:43;3.20;99.90
6206;DHT22;3136;48.788;9.772;2022-12-04T16:57:09;3.20;99.90
6206;DHT22;3136;48.788;9.772;2022-12-04T16:59:35;3.20;1.00
6206;DHT22;3136;48.788;9.772;2022-12-04T17:02:04;3.20;1.00
6206;DHT22;3136;48.788;9.772;2022-12-04T17:04:31;3.10;1.00
6206;DHT22;3136;48.788;9.772;2022-12-04T17:06:56;3.20;1.00
6206;DHT22;3136;48.788;9.772;2022-12-04T17:09:22;3.20;1.00
6206;DHT22;3136;48.788;9.772;2022-12-04T17:11:47;3.10;1.00
6206;DHT22;3136;48.788;9.772;2022-12-04T17:14:13;3.20;1.00
6206;DHT22;3136;48.788;9.772;2022-12-04T17:16:40;3.10;1.00
6206;DHT22;3136;48.788;9.772;2022-12-04T17:19:08;3.10;1.00
6206;DHT22;3136;48.788;9.772;2022-12-04T17:21:34;3.10;1.00
6206;DHT22;3136;48.788;9.772;2022-12-04T17:24:00;3.20;1.00
6206;DHT22;3136;48.788;9.772;2022-12-04T17:26:26;3.20;1.00
6206;DHT22;3136;48.788;9.772;2022-12-04T17:28:52;3.20;1.00
6206;DHT22;3136;48.788;9.772;2022-12-04T17:31:23;3.20;1.00
6206;DHT22;3136;48.788;9.772;2022-12-04T17:33:49;3.20;1.00
6206;DHT22;3136;48.788;9.772;2022-12-04T17:36:18;3.20;1.00
6206;DHT22;3136;48.788;9.772;2022-12-04T17:38:44;3.20;1.00
6206;DHT22;3136;48.788;9.772;2022-12-04T17:41:11;3.20;1.00
6206;DHT22;3136;48.788;9.772;2022-12-04T17:43:38;3.20;1.00
6206;DHT22;3136;48.788;9.772;2022-12-04T17:46:09;3.20;1.00
6206;DHT22;3136;48.788;9.772;2022-12-04T17:48:35;3.20;1.00
6206;DHT22;3136;48.788;9.772;2022-12-04T17:51:37;3.20;1.00
6206;DHT22;3136;48.788;9.772;2022-12-04T17:53:55;3.20;1.00
6206;DHT22;3136;48.788;9.772;2022-12-04T17:56:22;3.20;1.00
6206;DHT22;3136;48.788;9.772;2022-12-04T17:58:49;3.50;1.00
6206;DHT22;3136;48.788;9.772;2022-12-04T18:01:17;3.20;1.00
6206;DHT22;3136;48.788;9.772;2022-12-04T18:03:47;3.10;1.00
6206;DHT22;3136;48.788;9.772;2022-12-04T18:06:21;3.10;1.00
6206;DHT22;3136;48.788;9.772;2022-12-04T18:08:47;3.10;1.00
6206;DHT22;3136;48.788;9.772;2022-12-04T18:11:13;3.10;1.00
6206;DHT22;3136;48.788;9.772;2022-12-04T18:13:39;3.10;1.00
6206;DHT22;3136;48.788;9.772;2022-12-04T18:16:06;3.10;1.00
6206;DHT22;3136;48.788;9.772;2022-12-04T18:18:33;3.20;1.00
6206;DHT22;3136;48.788;9.772;2022-12-04T18:21:07;3.20;1.00
6206;DHT22;3136;48.788;9.772;2022-12-04T18:23:37;3.20;1.00
6206;DHT22;3136;48.788;9.772;2022-12-04T18:26:05;3.20;1.00
6206;DHT22;3136;48.788;9.772;2022-12-04T18:28:31;3.10;1.00
6206;DHT22;3136;48.788;9.772;2022-12-04T18:31:01;3.20;1.00
6206;DHT22;3136;48.788;9.772;2022-12-04T18:33:31;3.20;1.00
6206;DHT22;3136;48.788;9.772;2022-12-04T18:35:57;3.20;1.00
6206;DHT22;3136;48.788;9.772;2022-12-04T18:38:24;3.10;1.00
6206;DHT22;3136;48.788;9.772;2022-12-04T18:40:50;3.20;1.00
6206;DHT22;3136;48.788;9.772;2022-12-04T18:43:18;3.20;1.00
6206;DHT22;3136;48.788;9.772;2022-12-04T18:45:44;3.10;1.00
6206;DHT22;3136;48.788;9.772;2022-12-04T18:48:13;3.10;1.00
6206;DHT22;3136;48.788;9.772;2022-12-04T18:50:40;3.10;1.00
6206;DHT22;3136;48.788;9.772;2022-12-04T18:53:05;3.10;1.00
6206;DHT22;3136;48.788;9.772;2022-12-04T18:55:35;3.10;1.00
6206;DHT22;3136;48.788;9.772;2022-12-04T18:58:00;3.00;1.00
6206;DHT22;3136;48.788;9.772;2022-12-04T19:00:26;3.10;1.00
6206;DHT22;3136;48.788;9.772;2022-12-04T19:02:51;3.10;1.00
6206;DHT22;3136;48.788;9.772;2022-12-04T19:05:17;3.10;1.00
6206;DHT22;3136;48.788;9.772;2022-12-04T19:07:43;3.10;1.00
6206;DHT22;3136;48.788;9.772;2022-12-04T19:10:08;3.10;1.00
6206;DHT22;3136;48.788;9.772;2022-12-04T19:12:34;3.10;1.00